Seastreak Highlands — WDE4031 — position and weather

sailwx.info

Track history (hours):
 
Tides and Currents Weather Stations Pressure Air Temp Water Temp Dewpoint Dewpoint Depression Visibility Wind Speed Wind Dir Waves Ship Positions

Seastreak Highlands

Owner: Seastreak llc, atlantic highlands, NJ. More information available from US FCC via Universal Licensing System and Coast Guard Vessel Documentation Center.

Last reported at 2017-May-26 13:31 UTC. Time now 2017-May-26 16:50 UTC.
Position N 40°42' W 074°00'.

Length 44 m.

Type: High speed craft. MMSI: 367347670.

Date/timePositionNaut miles runAvg speedWind from/ knotsBaromVisibWave heightAir tempDewpointWater temp
2017-May-26 13:31N 40°42' W 074°00'2 0.8
2017-May-26 11:31N 40°40' W 074°01'1526.7
2017-May-26 10:57N 40°25' W 074°02'1 0.1
2017-May-26 00:34N 40°25' W 074°01'1 6.3
2017-May-26 00:25N 40°25' W 074°02'1229.5
2017-May-26 00:01N 40°37' W 074°03'816.1
2017-May-25 23:31N 40°45' W 073°58'816.8
2017-May-25 23:00N 40°37' W 074°03'1218.1
2017-May-25 22:21N 40°25' W 074°01'614.9
2017-May-25 21:58N 40°31' W 074°02'1124.8
2017-May-25 21:30N 40°42' W 074°00'3 5.9
2017-May-25 21:01N 40°45' W 073°58'815.9
2017-May-25 20:31N 40°37' W 074°03'1220.3
2017-May-25 19:54N 40°25' W 074°02'611.6
2017-May-25 19:25N 40°31' W 074°02'1128.1
2017-May-25 19:00N 40°42' W 074°00'3 5.9
2017-May-25 18:30N 40°45' W 073°58'0 0.0
2017-May-25 18:00N 40°45' W 073°58'0 0.1
2017-May-25 17:30N 40°45' W 073°58'0 0.1
2017-May-25 17:00N 40°45' W 073°58'0 0.0
2017-May-25 16:30N 40°45' W 073°58'0 0.0
2017-May-25 16:00N 40°45' W 073°58'0 0.0
2017-May-25 15:30N 40°45' W 073°58'0 0.0
2017-May-25 15:00N 40°45' W 073°58'0 0.0
2017-May-25 14:30N 40°45' W 073°58'4 4.5
2017-May-25 13:31N 40°41' W 074°02'1623.6
2017-May-25 12:50N 40°25' W 074°02'823.5
2017-May-25 12:30N 40°33' W 074°02'1224.4
2017-May-25 12:00N 40°45' W 073°58'714.2
2017-May-25 11:31N 40°38' W 074°02'1317.9
2017-May-25 10:47N 40°25' W 074°02'8 1.0
2017-May-25 02:20N 40°33' W 074°02'927.9
2017-May-25 02:01N 40°42' W 074°00'3 5.8
2017-May-25 01:30N 40°45' W 073°58'714.9
2017-May-25 01:01N 40°38' W 074°03'13 8.1
2017-May-24 23:21N 40°25' W 074°00'0 0.9
2017-May-24 22:57N 40°25' W 073°60'1227.5
2017-May-24 22:30N 40°37' W 074°03'917.1
2017-May-24 22:00N 40°45' W 073°58'917.1
2017-May-24 21:30N 40°37' W 074°03'1223.3
2017-May-24 21:00N 40°25' W 074°00'1020.9
2017-May-24 20:31N 40°36' W 074°03'713.5
2017-May-24 20:01N 40°42' W 074°00'1 2.9
2017-May-24 19:31N 40°41' W 074°02'1529.5
2017-May-24 18:59N 40°26' W 074°01'1 1.2
2017-May-24 18:24N 40°25' W 074°01'1024.0
2017-May-24 18:00N 40°35' W 074°03'1020.8
2017-May-24 17:30N 40°45' W 073°58'611.8
2017-May-24 17:01N 40°39' W 074°02'1324.9
2017-May-24 16:29N 40°26' W 074°01'3 6.1
2017-May-24 15:55N 40°30' W 074°02'1229.4
2017-May-24 15:31N 40°42' W 074°01'3 5.1
2017-May-24 15:01N 40°43' W 073°58'713.1
2017-May-24 14:31N 40°37' W 074°03'6 5.6
2017-May-24 13:23N 40°31' W 074°02'1129.6
2017-May-24 13:01N 40°42' W 074°01'3 6.7
2017-May-24 12:31N 40°45' W 073°58'510.6
2017-May-24 12:01N 40°40' W 074°01'8 0.7
2017-May-24 00:07N 40°32' W 074°02'433.1
2017-May-24 00:00N 40°36' W 074°03'918.6
2017-May-23 23:30N 40°45' W 073°58'5 9.3
2017-May-23 23:01N 40°41' W 074°01'6 5.4
2017-May-23 21:49N 40°34' W 074°02'825.7
2017-May-23 21:30N 40°42' W 074°00'3 5.8
2017-May-23 21:00N 40°45' W 073°58'4 8.9
2017-May-23 20:31N 40°41' W 074°01'1622.7
2017-May-23 19:49N 40°25' W 074°01'613.9
2017-May-23 19:25N 40°31' W 074°02'1127.8
2017-May-23 19:00N 40°42' W 074°00'3 5.7
2017-May-23 18:29N 40°45' W 073°58'0 0.0
2017-May-23 18:00N 40°45' W 073°58'0 0.0
2017-May-23 17:30N 40°45' W 073°58'0 0.0
2017-May-23 17:00N 40°45' W 073°58'0 0.0
2017-May-23 16:30N 40°45' W 073°58'0 0.0
2017-May-23 16:00N 40°45' W 073°58'0 0.0
2017-May-23 15:30N 40°45' W 073°58'0 0.0
2017-May-23 15:00N 40°45' W 073°58'0 0.0
2017-May-23 14:30N 40°45' W 073°58'3 3.0
2017-May-23 13:31N 40°42' W 074°00'1314.6
2017-May-23 12:36N 40°29' W 074°02'332.0
2017-May-23 12:30N 40°32' W 074°02'1326.1
2017-May-23 12:00N 40°45' W 073°58'611.8
2017-May-23 11:31N 40°39' W 074°02'6 0.5
2017-May-23 00:03N 40°33' W 074°02'234.8
2017-May-23 00:00N 40°35' W 074°02'1020.4
2017-May-22 23:30N 40°45' W 073°58'612.0
2017-May-22 23:01N 40°39' W 074°02'7 6.3
2017-May-22 21:53N 40°32' W 074°02'1026.3
2017-May-22 21:30N 40°42' W 074°00'3 5.7
2017-May-22 21:00N 40°45' W 073°58'510.4
2017-May-22 20:31N 40°40' W 074°02'1521.8
2017-May-22 19:49N 40°25' W 074°01'411.6
2017-May-22 19:26N 40°30' W 074°02'1228.9
2017-May-22 19:01N 40°42' W 074°00'3 5.8
2017-May-22 18:30N 40°45' W 073°58'0 0.0
2017-May-22 18:00N 40°45' W 073°58'0 0.0
2017-May-22 17:30N 40°45' W 073°58'0 0.0
2017-May-22 17:00N 40°45' W 073°58'0 0.0
2017-May-22 16:30N 40°45' W 073°58'0 0.0
2017-May-22 16:00N 40°45' W 073°58'0 0.0
2017-May-22 15:30N 40°45' W 073°58'0 0.0
2017-May-22 15:00N 40°45' W 073°58'0 0.0
2017-May-22 14:00N 40°45' W 073°58'4 8.4
2017-May-22 13:31N 40°41' W 074°02'1629.1
2017-May-22 12:57N 40°25' W 074°02'714.7
2017-May-22 12:29N 40°32' W 074°02'1326.5
2017-May-22 12:00N 40°45' W 073°58'511.1
2017-May-22 11:31N 40°40' W 074°02'1519.2
2017-May-22 10:45N 40°25' W 074°01'1 3.7
2017-May-22 10:21N 40°25' W 073°60'2 5.2
2017-May-22 10:00N 40°25' W 074°02'0 0.0
2017-May-22 09:30N 40°25' W 074°02'0 0.0
2017-May-21 23:37N 40°25' W 074°02'4 4.8
2017-May-21 22:49N 40°29' W 074°01'2031.1
2017-May-21 22:10N 40°09' W 074°00'1632.6
2017-May-21 21:42N 39°53' W 074°03'632.7
2017-May-21 21:30N 39°47' W 074°04'15 0.4
2017-May-20 09:31N 39°33' W 074°12'1632.3
2017-May-20 09:00N 39°48' W 074°02'1932.1
2017-May-20 08:25N 40°07' W 073°58'2231.7
2017-May-20 07:44N 40°28' W 073°58'4 0.7
2017-May-20 02:44N 40°25' W 074°01'414.8
2017-May-20 02:26N 40°30' W 074°02'1329.1
2017-May-20 02:00N 40°42' W 074°00'3 5.8
2017-May-20 01:30N 40°45' W 073°58'1123.1
2017-May-20 01:00N 40°34' W 074°02'8 5.6
2017-May-19 23:31N 40°25' W 074°01'0 0.7
2017-May-19 23:20N 40°25' W 074°01'411.8
2017-May-19 22:57N 40°30' W 074°02'1226.8
2017-May-19 22:31N 40°42' W 074°00'3 6.4
2017-May-19 22:00N 40°44' W 073°58'1426.8
2017-May-19 21:30N 40°31' W 074°02'0 0.1
2017-May-19 20:41N 40°31' W 074°02'529.6
2017-May-19 20:31N 40°36' W 074°03'713.8
2017-May-19 20:01N 40°43' W 073°59'4 7.9
2017-May-19 19:31N 40°39' W 074°02'1326.6
2017-May-19 19:00N 40°26' W 074°01'5 7.7
2017-May-19 18:20N 40°31' W 074°02'928.9
2017-May-19 18:01N 40°41' W 074°01'5 9.5
2017-May-19 17:30N 40°45' W 073°58'1019.7
2017-May-19 17:00N 40°35' W 074°02'1121.4
2017-May-19 16:30N 40°25' W 073°60'3 5.9
2017-May-19 15:59N 40°27' W 074°01'1530.3
2017-May-19 15:31N 40°42' W 074°00'2 3.5
2017-May-19 15:01N 40°43' W 073°58'1817.6
2017-May-19 14:00N 40°25' W 074°02'4 6.5
2017-May-19 13:24N 40°29' W 074°02'1331.7
2017-May-19 13:01N 40°42' W 074°00'3 6.6
2017-May-19 12:30N 40°44' W 073°58'714.5
2017-May-19 12:01N 40°38' W 074°03'1325.7
2017-May-19 11:30N 40°25' W 074°02'2 2.7
2017-May-19 10:53N 40°25' W 073°60'2 4.3
2017-May-19 10:30N 40°25' W 074°02'0 0.0
2017-May-19 09:58N 40°25' W 074°02'0 0.0
2017-May-19 09:29N 40°25' W 074°02'0 0.0
2017-May-19 09:00N 40°25' W 074°02'0 0.0
2017-May-19 08:29N 40°25' W 074°02'0 0.0
2017-May-19 07:54N 40°25' W 074°02'0 0.0
2017-May-19 07:29N 40°25' W 074°02'0 0.3
2017-May-19 07:00N 40°25' W 074°02'3 5.4
2017-May-19 06:30N 40°28' W 074°02'3 5.7
2017-May-19 06:00N 40°25' W 074°02'0 0.0
2017-May-19 05:26N 40°25' W 074°02'0 0.0
2017-May-19 04:49N 40°25' W 074°02'0 0.0
2017-May-19 04:26N 40°25' W 074°02'0 0.0
2017-May-19 03:59N 40°25' W 074°02'0 0.0
2017-May-19 03:30N 40°25' W 074°02'0 0.0
2017-May-19 03:00N 40°25' W 074°02'0 0.0
2017-May-19 02:30N 40°25' W 074°02'0 0.0
2017-May-19 01:59N 40°25' W 074°02'0 0.0
2017-May-19 01:30N 40°25' W 074°02'0 0.0
2017-May-19 00:58N 40°25' W 074°02'0 0.0
2017-May-19 00:30N 40°25' W 074°02'0 0.0
2017-May-19 00:00N 40°25' W 074°02'0 0.0
2017-May-18 23:29N 40°25' W 074°02'0 0.0
2017-May-18 23:01N 40°25' W 074°02'0 0.0
2017-May-18 22:20N 40°25' W 074°02'0 0.0
2017-May-18 22:00N 40°25' W 074°02'0 0.0
2017-May-18 21:29N 40°25' W 074°02'0 0.0
2017-May-18 20:59N 40°25' W 074°02'0 0.0
2017-May-18 20:09N 40°25' W 074°02'0 0.0
2017-May-18 19:59N 40°25' W 074°02'0 0.0
2017-May-18 19:30N 40°25' W 074°02'0 0.0
2017-May-18 19:00N 40°25' W 074°02'0 0.0
2017-May-18 18:30N 40°25' W 074°02'0 0.0
2017-May-18 18:00N 40°25' W 074°02'0 0.0
2017-May-18 17:30N 40°25' W 074°02'0 0.0
2017-May-18 17:00N 40°25' W 074°02'0 0.0
2017-May-18 16:30N 40°25' W 074°02'0 0.0
2017-May-18 16:00N 40°25' W 074°02'0 0.0
2017-May-18 15:30N 40°25' W 074°02'0 0.0
2017-May-18 14:54N 40°25' W 074°02'0 0.0
2017-May-18 13:58N 40°25' W 074°02'0 0.0
2017-May-18 13:30N 40°25' W 074°02'0 0.0
2017-May-18 13:00N 40°25' W 074°02'0 0.0
2017-May-18 12:26N 40°25' W 074°02'0 0.0
2017-May-18 11:59N 40°25' W 074°02'0 0.0
2017-May-18 11:20N 40°25' W 074°02'0 0.0
2017-May-18 11:00N 40°25' W 074°02'0 0.0
2017-May-18 10:29N 40°25' W 074°02'0 0.0
2017-May-18 09:59N 40°25' W 074°02'0 0.0
2017-May-18 09:29N 40°25' W 074°02'0 0.0
2017-May-18 09:00N 40°25' W 074°02'0 0.0
2017-May-18 08:30N 40°25' W 074°02'0 0.0
2017-May-18 08:00N 40°25' W 074°02'0 0.0
2017-May-18 07:30N 40°25' W 074°02'0 0.0
2017-May-18 07:00N 40°25' W 074°02'0 0.0
2017-May-18 06:30N 40°25' W 074°02'0 0.0
2017-May-18 06:00N 40°25' W 074°02'0 0.0
2017-May-18 05:29N 40°25' W 074°02'0 0.0
2017-May-18 05:00N 40°25' W 074°02'0 0.0
2017-May-18 04:30N 40°25' W 074°02'0 0.0
2017-May-18 04:00N 40°25' W 074°02'0 0.0
2017-May-18 03:25N 40°25' W 074°02'0 0.0
2017-May-18 02:58N 40°25' W 074°02'0 0.0
2017-May-18 02:23N 40°25' W 074°02'0 0.0
2017-May-18 01:56N 40°25' W 074°02'0 0.0
2017-May-18 01:30N 40°25' W 074°02'0 0.0
2017-May-18 00:59N 40°25' W 074°02'0 0.0
2017-May-18 00:30N 40°25' W 074°02'0 0.0
2017-May-18 00:00N 40°25' W 074°02'0 0.0
2017-May-17 23:30N 40°25' W 074°02'0 0.0
2017-May-17 23:00N 40°25' W 074°02'0 0.0
2017-May-17 22:31N 40°25' W 074°02'0 0.0
2017-May-17 21:50N 40°25' W 074°02'0 0.0
2017-May-17 20:22N 40°25' W 074°02'0 0.0
2017-May-17 20:00N 40°25' W 074°02'0 0.0
2017-May-17 19:31N 40°25' W 074°02'0 0.0
2017-May-17 18:56N 40°25' W 074°02'0 0.0
2017-May-17 18:30N 40°25' W 074°02'0 0.0
2017-May-17 17:59N 40°25' W 074°02'0 0.0
2017-May-17 17:30N 40°25' W 074°02'0 0.0
2017-May-17 17:00N 40°25' W 074°02'0 0.0
2017-May-17 15:55N 40°25' W 074°02'0 0.0
2017-May-17 15:28N 40°25' W 074°02'0 0.0
2017-May-17 14:33N 40°25' W 074°02'0 0.0
2017-May-17 14:00N 40°25' W 074°02'0 0.0
2017-May-17 13:30N 40°25' W 074°02'0 0.0
2017-May-17 13:00N 40°25' W 074°02'0 0.0
2017-May-17 12:28N 40°25' W 074°02'0 0.0
2017-May-17 12:00N 40°25' W 074°02'0 0.0
2017-May-17 11:30N 40°25' W 074°02'0 0.0
2017-May-17 10:59N 40°25' W 074°02'0 0.0
2017-May-17 10:30N 40°25' W 074°02'0 0.0
2017-May-17 10:00N 40°25' W 074°02'0 0.0
2017-May-17 09:29N 40°25' W 074°02'0 0.0
2017-May-17 09:00N 40°25' W 074°02'0 0.0
2017-May-17 08:30N 40°25' W 074°02'0 0.0
2017-May-17 08:00N 40°25' W 074°02'0 0.0
2017-May-17 07:30N 40°25' W 074°02'0 0.0
2017-May-17 07:00N 40°25' W 074°02'0 0.0
2017-May-17 06:30N 40°25' W 074°02'0 0.0
2017-May-17 06:00N 40°25' W 074°02'0 0.0
2017-May-17 05:29N 40°25' W 074°02'0 0.0
2017-May-17 05:00N 40°25' W 074°02'0 0.0
2017-May-17 04:30N 40°25' W 074°02'0 0.0
2017-May-17 04:00N 40°25' W 074°02'0 0.0
2017-May-17 03:28N 40°25' W 074°02'0 0.0
2017-May-17 02:58N 40°25' W 074°02'0 0.0
2017-May-17 02:29N 40°25' W 074°02'0 0.0
2017-May-17 01:53N 40°25' W 074°02'0 0.0
2017-May-17 01:11N 40°25' W 074°02'0 0.0
2017-May-17 01:00N 40°25' W 074°02'0 0.0
2017-May-17 00:30N 40°25' W 074°02'0 0.0
2017-May-16 23:59N 40°25' W 074°02'0 0.0
2017-May-16 23:30N 40°25' W 074°02'0 0.0
2017-May-16 23:00N 40°25' W 074°02'0 0.0
2017-May-16 22:27N 40°25' W 074°02'0 0.0
2017-May-16 22:00N 40°25' W 074°02'0 0.0
2017-May-16 21:30N 40°25' W 074°02'0 0.0
2017-May-16 21:00N 40°25' W 074°02'0 0.0
2017-May-16 20:28N 40°25' W 074°02'0 0.0
2017-May-16 19:58N 40°25' W 074°02'0 0.0
2017-May-16 19:28N 40°25' W 074°02'0 0.0
2017-May-16 18:58N 40°25' W 074°02'0 0.0
2017-May-16 18:27N 40°25' W 074°02'0 0.0
2017-May-16 18:00N 40°25' W 074°02'0 0.0
2017-May-16 17:22N 40°25' W 074°02'0 0.0
2017-May-16 17:00N 40°25' W 074°02'0 0.0
2017-May-16 16:28N 40°25' W 074°02'0 0.0
2017-May-16 15:59N 40°25' W 074°02'0 0.0
2017-May-16 15:30N 40°25' W 074°02'0 0.0
2017-May-16 14:54N 40°25' W 074°02'0 0.0
2017-May-16 13:59N 40°25' W 074°02'0 0.0
2017-May-16 13:30N 40°25' W 074°02'0 0.0
2017-May-16 13:00N 40°25' W 074°02'0 0.0
2017-May-16 12:29N 40°25' W 074°02'0 0.0
2017-May-16 12:00N 40°25' W 074°02'0 0.0
2017-May-16 11:30N 40°25' W 074°02'0 0.0
2017-May-16 11:00N 40°25' W 074°02'  
Track history (hours):
 
Tides and Currents Weather Stations Pressure Air Temp Water Temp Dewpoint Dewpoint Depression Visibility Wind Speed Wind Dir Waves Ship Positions

Seastreak Highlands

Owner: Seastreak llc, atlantic highlands, NJ. More information available from US FCC via Universal Licensing System and Coast Guard Vessel Documentation Center.

Last reported at 2017-May-26 13:31 UTC. Time now 2017-May-26 16:50 UTC.
Position N 40°42' W 074°00'.

Length 44 m.

Type: High speed craft. MMSI: 367347670.

Date/timePositionNaut miles runAvg speedWind from/ knotsBaromVisibWave heightAir tempDewpointWater temp
2017-May-26 13:31N 40°42' W 074°00'2 0.8
2017-May-26 11:31N 40°40' W 074°01'1526.7
2017-May-26 10:57N 40°25' W 074°02'1 0.1
2017-May-26 00:34N 40°25' W 074°01'1 6.3
2017-May-26 00:25N 40°25' W 074°02'1229.5
2017-May-26 00:01N 40°37' W 074°03'816.1
2017-May-25 23:31N 40°45' W 073°58'816.8
2017-May-25 23:00N 40°37' W 074°03'1218.1
2017-May-25 22:21N 40°25' W 074°01'614.9
2017-May-25 21:58N 40°31' W 074°02'1124.8
2017-May-25 21:30N 40°42' W 074°00'3 5.9
2017-May-25 21:01N 40°45' W 073°58'815.9
2017-May-25 20:31N 40°37' W 074°03'1220.3
2017-May-25 19:54N 40°25' W 074°02'611.6
2017-May-25 19:25N 40°31' W 074°02'1128.1
2017-May-25 19:00N 40°42' W 074°00'3 5.9
2017-May-25 18:30N 40°45' W 073°58'0 0.0
2017-May-25 18:00N 40°45' W 073°58'0 0.1
2017-May-25 17:30N 40°45' W 073°58'0 0.1
2017-May-25 17:00N 40°45' W 073°58'0 0.0
2017-May-25 16:30N 40°45' W 073°58'0 0.0
2017-May-25 16:00N 40°45' W 073°58'0 0.0
2017-May-25 15:30N 40°45' W 073°58'0 0.0
2017-May-25 15:00N 40°45' W 073°58'0 0.0
2017-May-25 14:30N 40°45' W 073°58'4 4.5
2017-May-25 13:31N 40°41' W 074°02'1623.6
2017-May-25 12:50N 40°25' W 074°02'823.5
2017-May-25 12:30N 40°33' W 074°02'1224.4
2017-May-25 12:00N 40°45' W 073°58'714.2
2017-May-25 11:31N 40°38' W 074°02'1317.9
2017-May-25 10:47N 40°25' W 074°02'8 1.0
2017-May-25 02:20N 40°33' W 074°02'927.9
2017-May-25 02:01N 40°42' W 074°00'3 5.8
2017-May-25 01:30N 40°45' W 073°58'714.9
2017-May-25 01:01N 40°38' W 074°03'13 8.1
2017-May-24 23:21N 40°25' W 074°00'0 0.9
2017-May-24 22:57N 40°25' W 073°60'1227.5
2017-May-24 22:30N 40°37' W 074°03'917.1
2017-May-24 22:00N 40°45' W 073°58'917.1
2017-May-24 21:30N 40°37' W 074°03'1223.3
2017-May-24 21:00N 40°25' W 074°00'1020.9
2017-May-24 20:31N 40°36' W 074°03'713.5
2017-May-24 20:01N 40°42' W 074°00'1 2.9
2017-May-24 19:31N 40°41' W 074°02'1529.5
2017-May-24 18:59N 40°26' W 074°01'1 1.2
2017-May-24 18:24N 40°25' W 074°01'1024.0
2017-May-24 18:00N 40°35' W 074°03'1020.8
2017-May-24 17:30N 40°45' W 073°58'611.8
2017-May-24 17:01N 40°39' W 074°02'1324.9
2017-May-24 16:29N 40°26' W 074°01'3 6.1
2017-May-24 15:55N 40°30' W 074°02'1229.4
2017-May-24 15:31N 40°42' W 074°01'3 5.1
2017-May-24 15:01N 40°43' W 073°58'713.1
2017-May-24 14:31N 40°37' W 074°03'6 5.6
2017-May-24 13:23N 40°31' W 074°02'1129.6
2017-May-24 13:01N 40°42' W 074°01'3 6.7
2017-May-24 12:31N 40°45' W 073°58'510.6
2017-May-24 12:01N 40°40' W 074°01'8 0.7
2017-May-24 00:07N 40°32' W 074°02'433.1
2017-May-24 00:00N 40°36' W 074°03'918.6
2017-May-23 23:30N 40°45' W 073°58'5 9.3
2017-May-23 23:01N 40°41' W 074°01'6 5.4
2017-May-23 21:49N 40°34' W 074°02'825.7
2017-May-23 21:30N 40°42' W 074°00'3 5.8
2017-May-23 21:00N 40°45' W 073°58'4 8.9
2017-May-23 20:31N 40°41' W 074°01'1622.7
2017-May-23 19:49N 40°25' W 074°01'613.9
2017-May-23 19:25N 40°31' W 074°02'1127.8
2017-May-23 19:00N 40°42' W 074°00'3 5.7
2017-May-23 18:29N 40°45' W 073°58'0 0.0
2017-May-23 18:00N 40°45' W 073°58'0 0.0
2017-May-23 17:30N 40°45' W 073°58'0 0.0
2017-May-23 17:00N 40°45' W 073°58'0 0.0
2017-May-23 16:30N 40°45' W 073°58'0 0.0
2017-May-23 16:00N 40°45' W 073°58'0 0.0
2017-May-23 15:30N 40°45' W 073°58'0 0.0
2017-May-23 15:00N 40°45' W 073°58'0 0.0
2017-May-23 14:30N 40°45' W 073°58'3 3.0
2017-May-23 13:31N 40°42' W 074°00'1314.6
2017-May-23 12:36N 40°29' W 074°02'332.0
2017-May-23 12:30N 40°32' W 074°02'1326.1
2017-May-23 12:00N 40°45' W 073°58'611.8
2017-May-23 11:31N 40°39' W 074°02'6 0.5
2017-May-23 00:03N 40°33' W 074°02'234.8
2017-May-23 00:00N 40°35' W 074°02'1020.4
2017-May-22 23:30N 40°45' W 073°58'612.0
2017-May-22 23:01N 40°39' W 074°02'7 6.3
2017-May-22 21:53N 40°32' W 074°02'1026.3
2017-May-22 21:30N 40°42' W 074°00'3 5.7
2017-May-22 21:00N 40°45' W 073°58'510.4
2017-May-22 20:31N 40°40' W 074°02'1521.8
2017-May-22 19:49N 40°25' W 074°01'411.6
2017-May-22 19:26N 40°30' W 074°02'1228.9
2017-May-22 19:01N 40°42' W 074°00'3 5.8
2017-May-22 18:30N 40°45' W 073°58'0 0.0
2017-May-22 18:00N 40°45' W 073°58'0 0.0
2017-May-22 17:30N 40°45' W 073°58'0 0.0
2017-May-22 17:00N 40°45' W 073°58'0 0.0
2017-May-22 16:30N 40°45' W 073°58'0 0.0
2017-May-22 16:00N 40°45' W 073°58'0 0.0
2017-May-22 15:30N 40°45' W 073°58'0 0.0
2017-May-22 15:00N 40°45' W 073°58'0 0.0
2017-May-22 14:00N 40°45' W 073°58'4 8.4
2017-May-22 13:31N 40°41' W 074°02'1629.1
2017-May-22 12:57N 40°25' W 074°02'714.7
2017-May-22 12:29N 40°32' W 074°02'1326.5
2017-May-22 12:00N 40°45' W 073°58'511.1
2017-May-22 11:31N 40°40' W 074°02'1519.2
2017-May-22 10:45N 40°25' W 074°01'1 3.7
2017-May-22 10:21N 40°25' W 073°60'2 5.2
2017-May-22 10:00N 40°25' W 074°02'0 0.0
2017-May-22 09:30N 40°25' W 074°02'0 0.0
2017-May-21 23:37N 40°25' W 074°02'4 4.8
2017-May-21 22:49N 40°29' W 074°01'2031.1
2017-May-21 22:10N 40°09' W 074°00'1632.6
2017-May-21 21:42N 39°53' W 074°03'632.7
2017-May-21 21:30N 39°47' W 074°04'15 0.4
2017-May-20 09:31N 39°33' W 074°12'1632.3
2017-May-20 09:00N 39°48' W 074°02'1932.1
2017-May-20 08:25N 40°07' W 073°58'2231.7
2017-May-20 07:44N 40°28' W 073°58'4 0.7
2017-May-20 02:44N 40°25' W 074°01'414.8
2017-May-20 02:26N 40°30' W 074°02'1329.1
2017-May-20 02:00N 40°42' W 074°00'3 5.8
2017-May-20 01:30N 40°45' W 073°58'1123.1
2017-May-20 01:00N 40°34' W 074°02'8 5.6
2017-May-19 23:31N 40°25' W 074°01'0 0.7
2017-May-19 23:20N 40°25' W 074°01'411.8
2017-May-19 22:57N 40°30' W 074°02'1226.8
2017-May-19 22:31N 40°42' W 074°00'3 6.4
2017-May-19 22:00N 40°44' W 073°58'1426.8
2017-May-19 21:30N 40°31' W 074°02'0 0.1
2017-May-19 20:41N 40°31' W 074°02'529.6
2017-May-19 20:31N 40°36' W 074°03'713.8
2017-May-19 20:01N 40°43' W 073°59'4 7.9
2017-May-19 19:31N 40°39' W 074°02'1326.6
2017-May-19 19:00N 40°26' W 074°01'5 7.7
2017-May-19 18:20N 40°31' W 074°02'928.9
2017-May-19 18:01N 40°41' W 074°01'5 9.5
2017-May-19 17:30N 40°45' W 073°58'1019.7
2017-May-19 17:00N 40°35' W 074°02'1121.4
2017-May-19 16:30N 40°25' W 073°60'3 5.9
2017-May-19 15:59N 40°27' W 074°01'1530.3
2017-May-19 15:31N 40°42' W 074°00'2 3.5
2017-May-19 15:01N 40°43' W 073°58'1817.6
2017-May-19 14:00N 40°25' W 074°02'4 6.5
2017-May-19 13:24N 40°29' W 074°02'1331.7
2017-May-19 13:01N 40°42' W 074°00'3 6.6
2017-May-19 12:30N 40°44' W 073°58'714.5
2017-May-19 12:01N 40°38' W 074°03'1325.7
2017-May-19 11:30N 40°25' W 074°02'2 2.7
2017-May-19 10:53N 40°25' W 073°60'2 4.3
2017-May-19 10:30N 40°25' W 074°02'0 0.0
2017-May-19 09:58N 40°25' W 074°02'0 0.0
2017-May-19 09:29N 40°25' W 074°02'0 0.0
2017-May-19 09:00N 40°25' W 074°02'0 0.0
2017-May-19 08:29N 40°25' W 074°02'0 0.0
2017-May-19 07:54N 40°25' W 074°02'0 0.0
2017-May-19 07:29N 40°25' W 074°02'0 0.3
2017-May-19 07:00N 40°25' W 074°02'3 5.4
2017-May-19 06:30N 40°28' W 074°02'3 5.7
2017-May-19 06:00N 40°25' W 074°02'0 0.0
2017-May-19 05:26N 40°25' W 074°02'0 0.0
2017-May-19 04:49N 40°25' W 074°02'0 0.0
2017-May-19 04:26N 40°25' W 074°02'0 0.0
2017-May-19 03:59N 40°25' W 074°02'0 0.0
2017-May-19 03:30N 40°25' W 074°02'0 0.0
2017-May-19 03:00N 40°25' W 074°02'0 0.0
2017-May-19 02:30N 40°25' W 074°02'0 0.0
2017-May-19 01:59N 40°25' W 074°02'0 0.0
2017-May-19 01:30N 40°25' W 074°02'0 0.0
2017-May-19 00:58N 40°25' W 074°02'0 0.0
2017-May-19 00:30N 40°25' W 074°02'0 0.0
2017-May-19 00:00N 40°25' W 074°02'0 0.0
2017-May-18 23:29N 40°25' W 074°02'0 0.0
2017-May-18 23:01N 40°25' W 074°02'0 0.0
2017-May-18 22:20N 40°25' W 074°02'0 0.0
2017-May-18 22:00N 40°25' W 074°02'0 0.0
2017-May-18 21:29N 40°25' W 074°02'0 0.0
2017-May-18 20:59N 40°25' W 074°02'0 0.0
2017-May-18 20:09N 40°25' W 074°02'0 0.0
2017-May-18 19:59N 40°25' W 074°02'0 0.0
2017-May-18 19:30N 40°25' W 074°02'0 0.0
2017-May-18 19:00N 40°25' W 074°02'0 0.0
2017-May-18 18:30N 40°25' W 074°02'0 0.0
2017-May-18 18:00N 40°25' W 074°02'0 0.0
2017-May-18 17:30N 40°25' W 074°02'0 0.0
2017-May-18 17:00N 40°25' W 074°02'0 0.0
2017-May-18 16:30N 40°25' W 074°02'0 0.0
2017-May-18 16:00N 40°25' W 074°02'0 0.0
2017-May-18 15:30N 40°25' W 074°02'0 0.0
2017-May-18 14:54N 40°25' W 074°02'0 0.0
2017-May-18 13:58N 40°25' W 074°02'0 0.0
2017-May-18 13:30N 40°25' W 074°02'0 0.0
2017-May-18 13:00N 40°25' W 074°02'0 0.0
2017-May-18 12:26N 40°25' W 074°02'0 0.0
2017-May-18 11:59N 40°25' W 074°02'0 0.0
2017-May-18 11:20N 40°25' W 074°02'0 0.0
2017-May-18 11:00N 40°25' W 074°02'0 0.0
2017-May-18 10:29N 40°25' W 074°02'0 0.0
2017-May-18 09:59N 40°25' W 074°02'0 0.0
2017-May-18 09:29N 40°25' W 074°02'0 0.0
2017-May-18 09:00N 40°25' W 074°02'0 0.0
2017-May-18 08:30N 40°25' W 074°02'0 0.0
2017-May-18 08:00N 40°25' W 074°02'0 0.0
2017-May-18 07:30N 40°25' W 074°02'0 0.0
2017-May-18 07:00N 40°25' W 074°02'0 0.0
2017-May-18 06:30N 40°25' W 074°02'0 0.0
2017-May-18 06:00N 40°25' W 074°02'0 0.0
2017-May-18 05:29N 40°25' W 074°02'0 0.0
2017-May-18 05:00N 40°25' W 074°02'0 0.0
2017-May-18 04:30N 40°25' W 074°02'0 0.0
2017-May-18 04:00N 40°25' W 074°02'0 0.0
2017-May-18 03:25N 40°25' W 074°02'0 0.0
2017-May-18 02:58N 40°25' W 074°02'0 0.0
2017-May-18 02:23N 40°25' W 074°02'0 0.0
2017-May-18 01:56N 40°25' W 074°02'0 0.0
2017-May-18 01:30N 40°25' W 074°02'0 0.0
2017-May-18 00:59N 40°25' W 074°02'0 0.0
2017-May-18 00:30N 40°25' W 074°02'0 0.0
2017-May-18 00:00N 40°25' W 074°02'0 0.0
2017-May-17 23:30N 40°25' W 074°02'0 0.0
2017-May-17 23:00N 40°25' W 074°02'0 0.0
2017-May-17 22:31N 40°25' W 074°02'0 0.0
2017-May-17 21:50N 40°25' W 074°02'0 0.0
2017-May-17 20:22N 40°25' W 074°02'0 0.0
2017-May-17 20:00N 40°25' W 074°02'0 0.0
2017-May-17 19:31N 40°25' W 074°02'0 0.0
2017-May-17 18:56N 40°25' W 074°02'0 0.0
2017-May-17 18:30N 40°25' W 074°02'0 0.0
2017-May-17 17:59N 40°25' W 074°02'0 0.0
2017-May-17 17:30N 40°25' W 074°02'0 0.0
2017-May-17 17:00N 40°25' W 074°02'0 0.0
2017-May-17 15:55N 40°25' W 074°02'0 0.0
2017-May-17 15:28N 40°25' W 074°02'0 0.0
2017-May-17 14:33N 40°25' W 074°02'0 0.0
2017-May-17 14:00N 40°25' W 074°02'0 0.0
2017-May-17 13:30N 40°25' W 074°02'0 0.0
2017-May-17 13:00N 40°25' W 074°02'0 0.0
2017-May-17 12:28N 40°25' W 074°02'0 0.0
2017-May-17 12:00N 40°25' W 074°02'0 0.0
2017-May-17 11:30N 40°25' W 074°02'0 0.0
2017-May-17 10:59N 40°25' W 074°02'0 0.0
2017-May-17 10:30N 40°25' W 074°02'0 0.0
2017-May-17 10:00N 40°25' W 074°02'0 0.0
2017-May-17 09:29N 40°25' W 074°02'0 0.0
2017-May-17 09:00N 40°25' W 074°02'0 0.0
2017-May-17 08:30N 40°25' W 074°02'0 0.0
2017-May-17 08:00N 40°25' W 074°02'0 0.0
2017-May-17 07:30N 40°25' W 074°02'0 0.0
2017-May-17 07:00N 40°25' W 074°02'0 0.0
2017-May-17 06:30N 40°25' W 074°02'0 0.0
2017-May-17 06:00N 40°25' W 074°02'0 0.0
2017-May-17 05:29N 40°25' W 074°02'0 0.0
2017-May-17 05:00N 40°25' W 074°02'0 0.0
2017-May-17 04:30N 40°25' W 074°02'0 0.0
2017-May-17 04:00N 40°25' W 074°02'0 0.0
2017-May-17 03:28N 40°25' W 074°02'0 0.0
2017-May-17 02:58N 40°25' W 074°02'0 0.0
2017-May-17 02:29N 40°25' W 074°02'0 0.0
2017-May-17 01:53N 40°25' W 074°02'0 0.0
2017-May-17 01:11N 40°25' W 074°02'0 0.0
2017-May-17 01:00N 40°25' W 074°02'0 0.0
2017-May-17 00:30N 40°25' W 074°02'0 0.0
2017-May-16 23:59N 40°25' W 074°02'0 0.0
2017-May-16 23:30N 40°25' W 074°02'0 0.0
2017-May-16 23:00N 40°25' W 074°02'0 0.0
2017-May-16 22:27N 40°25' W 074°02'0 0.0
2017-May-16 22:00N 40°25' W 074°02'0 0.0
2017-May-16 21:30N 40°25' W 074°02'0 0.0
2017-May-16 21:00N 40°25' W 074°02'0 0.0
2017-May-16 20:28N 40°25' W 074°02'0 0.0
2017-May-16 19:58N 40°25' W 074°02'0 0.0
2017-May-16 19:28N 40°25' W 074°02'0 0.0
2017-May-16 18:58N 40°25' W 074°02'0 0.0
2017-May-16 18:27N 40°25' W 074°02'0 0.0
2017-May-16 18:00N 40°25' W 074°02'0 0.0
2017-May-16 17:22N 40°25' W 074°02'0 0.0
2017-May-16 17:00N 40°25' W 074°02'0 0.0
2017-May-16 16:28N 40°25' W 074°02'0 0.0
2017-May-16 15:59N 40°25' W 074°02'0 0.0
2017-May-16 15:30N 40°25' W 074°02'0 0.0
2017-May-16 14:54N 40°25' W 074°02'0 0.0
2017-May-16 13:59N 40°25' W 074°02'0 0.0
2017-May-16 13:30N 40°25' W 074°02'0 0.0
2017-May-16 13:00N 40°25' W 074°02'0 0.0
2017-May-16 12:29N 40°25' W 074°02'0 0.0
2017-May-16 12:00N 40°25' W 074°02'0 0.0
2017-May-16 11:30N 40°25' W 074°02'0 0.0
2017-May-16 11:00N 40°25' W 074°02'  

Dump ship's entire track history